createdAt,value
2023-02-08T00:01:34.123Z,99.10
2023-02-08T00:04:02.408Z,110.53
2023-02-08T00:06:31.041Z,104.50
2023-02-08T00:08:59.380Z,123.30
2023-02-08T00:11:27.844Z,131.15
2023-02-08T00:13:56.004Z,100.10
2023-02-08T00:16:24.376Z,111.25
2023-02-08T00:18:52.576Z,134.90
2023-02-08T00:21:21.289Z,114.63
2023-02-08T00:23:49.883Z,108.13
2023-02-08T00:26:18.384Z,88.97
2023-02-08T00:28:46.752Z,93.80
2023-02-08T00:31:17.938Z,100.70
2023-02-08T00:33:46.830Z,125.03
2023-02-08T00:36:14.986Z,129.07
2023-02-08T00:38:43.378Z,127.50
2023-02-08T00:41:12.009Z,118.85
2023-02-08T00:43:40.212Z,106.43
2023-02-08T00:46:10.684Z,93.65
2023-02-08T00:48:39.049Z,104.78
2023-02-08T00:51:10.174Z,114.93
2023-02-08T00:53:40.250Z,127.30
2023-02-08T00:56:10.348Z,136.02
2023-02-08T00:58:38.560Z,127.30
2023-02-08T01:01:08.025Z,130.07
2023-02-08T01:03:38.956Z,146.80
2023-02-08T01:06:10.260Z,162.60
2023-02-08T01:08:42.228Z,149.43
2023-02-08T01:11:13.278Z,164.57
2023-02-08T01:13:42.826Z,157.03
2023-02-08T01:16:13.129Z,154.88
2023-02-08T01:18:44.143Z,154.73
2023-02-08T01:21:14.736Z,143.77
2023-02-08T01:23:44.689Z,137.15
2023-02-08T01:26:14.843Z,110.57
2023-02-08T01:28:43.469Z,108.72
2023-02-08T01:31:16.423Z,136.55
2023-02-08T01:33:45.474Z,167.27
2023-02-08T01:36:14.740Z,197.70
2023-02-08T01:38:44.788Z,223.27
2023-02-08T01:41:17.706Z,245.48
2023-02-08T01:44:29.372Z,215.57
2023-02-08T01:46:57.680Z,244.00
2023-02-08T01:49:30.453Z,220.45
2023-02-08T01:52:10.568Z,201.95
2023-02-08T01:54:58.057Z,219.48
2023-02-08T01:57:28.569Z,195.95
2023-02-08T02:00:02.331Z,202.60
2023-02-08T02:02:43.088Z,169.60
2023-02-08T02:05:15.109Z,158.90
2023-02-08T02:07:44.156Z,156.60
2023-02-08T02:10:18.596Z,159.82
2023-02-08T02:12:47.120Z,144.32
2023-02-08T02:15:15.382Z,154.77
2023-02-08T02:17:43.974Z,153.73
2023-02-08T02:20:38.340Z,146.38
2023-02-08T02:23:35.114Z,139.43
2023-02-08T02:26:54.702Z,139.93
2023-02-08T02:29:50.570Z,129.68
2023-02-08T02:32:27.913Z,121.70
2023-02-08T02:35:08.671Z,142.65
2023-02-08T02:38:14.746Z,115.18
2023-02-08T02:40:52.962Z,128.43
2023-02-08T02:43:33.568Z,125.20
2023-02-08T02:46:23.176Z,135.45
2023-02-08T02:49:16.316Z,128.73
2023-02-08T02:52:11.858Z,145.23
2023-02-08T02:54:48.055Z,129.23
2023-02-08T02:57:22.615Z,122.95
2023-02-08T02:59:51.298Z,137.85
2023-02-08T03:02:19.597Z,136.45
2023-02-08T03:04:56.243Z,118.63
2023-02-08T03:07:43.952Z,146.30
2023-02-08T03:10:48.511Z,106.53
2023-02-08T03:13:53.982Z,128.18
2023-02-08T03:16:26.936Z,135.18
2023-02-08T03:19:05.309Z,109.00
2023-02-08T03:21:51.726Z,124.28
2023-02-08T03:24:53.981Z,113.45
2023-02-08T03:27:38.527Z,136.40
2023-02-08T03:30:19.066Z,130.48
2023-02-08T03:33:07.669Z,142.82
2023-02-08T03:35:45.791Z,118.90
2023-02-08T03:38:29.927Z,122.72
2023-02-08T03:41:00.610Z,123.95
2023-02-08T03:43:40.859Z,129.60
2023-02-08T03:46:22.199Z,132.77
2023-02-08T03:49:00.005Z,118.00
2023-02-08T03:51:30.555Z,125.88
2023-02-08T03:54:01.744Z,135.43
2023-02-08T03:57:01.822Z,116.82
2023-02-08T03:59:35.368Z,98.13
2023-02-08T04:02:06.554Z,150.88
2023-02-08T04:04:39.798Z,131.20
2023-02-08T04:07:08.368Z,138.63
2023-02-08T04:09:38.753Z,130.02
2023-02-08T04:12:09.026Z,138.93
2023-02-08T04:14:37.269Z,120.20
2023-02-08T04:17:05.601Z,122.20
2023-02-08T04:19:34.191Z,128.75
2023-02-08T04:22:02.624Z,127.38
2023-02-08T04:24:30.918Z,125.95
2023-02-08T04:27:00.575Z,126.45
2023-02-08T04:29:29.709Z,117.13
2023-02-08T04:31:59.518Z,124.57
2023-02-08T04:34:27.832Z,127.75
2023-02-08T04:36:56.043Z,123.40
2023-02-08T04:39:25.664Z,118.47
2023-02-08T04:41:53.772Z,111.95
2023-02-08T04:44:21.957Z,124.55
2023-02-08T04:46:51.879Z,110.75
2023-02-08T04:49:20.316Z,93.85
2023-02-08T04:51:48.625Z,122.95
2023-02-08T04:54:17.303Z,123.72
2023-02-08T04:56:45.611Z,115.45
2023-02-08T04:59:13.813Z,109.22
2023-02-08T05:01:42.183Z,111.07
2023-02-08T05:04:10.470Z,132.60
2023-02-08T05:06:38.786Z,112.78
2023-02-08T05:09:10.880Z,115.47
2023-02-08T05:14:06.784Z,108.03
2023-02-08T05:16:35.131Z,120.93
2023-02-08T05:19:03.379Z,111.28
2023-02-08T05:21:34.205Z,124.63
2023-02-08T05:24:02.568Z,116.43
2023-02-08T05:26:31.030Z,105.30
2023-02-08T05:28:59.539Z,90.03
2023-02-08T05:31:27.852Z,108.60
2023-02-08T05:33:56.078Z,90.25
2023-02-08T05:36:24.636Z,98.97
2023-02-08T05:38:53.043Z,89.40
2023-02-08T05:41:21.272Z,98.40
2023-02-08T05:43:49.518Z,99.43
2023-02-08T05:46:18.384Z,100.60
2023-02-08T05:48:46.620Z,89.03
2023-02-08T05:51:15.180Z,90.55
2023-02-08T05:53:43.382Z,105.35
2023-02-08T05:56:11.663Z,118.28
2023-02-08T05:58:39.919Z,130.35
2023-02-08T06:01:12.408Z,133.07
2023-02-08T06:03:41.882Z,104.47
2023-02-08T06:06:10.061Z,101.63
2023-02-08T06:08:38.289Z,96.20
2023-02-08T06:11:07.292Z,77.55
2023-02-08T06:13:35.424Z,84.38
2023-02-08T06:16:03.859Z,82.15
2023-02-08T06:18:32.118Z,84.85
2023-02-08T06:21:00.305Z,93.63
2023-02-08T06:23:28.694Z,83.00
2023-02-08T06:25:56.871Z,96.88
2023-02-08T06:28:25.250Z,97.97
2023-02-08T06:30:54.037Z,81.00
2023-02-08T06:33:22.316Z,80.35
2023-02-08T06:35:53.833Z,84.22
2023-02-08T06:38:25.819Z,92.80
2023-02-08T06:40:54.185Z,68.68
2023-02-08T06:43:22.549Z,71.32
2023-02-08T06:45:50.853Z,88.32
2023-02-08T06:48:19.117Z,74.90
2023-02-08T06:50:47.557Z,82.82
2023-02-08T06:53:15.672Z,67.82
2023-02-08T06:55:48.254Z,66.47
2023-02-08T07:00:44.404Z,64.50
2023-02-08T07:03:13.608Z,59.42
2023-02-08T07:05:47.260Z,64.00
2023-02-08T07:08:23.705Z,70.80
2023-02-08T07:10:52.022Z,81.30
2023-02-08T07:13:20.210Z,62.38
2023-02-08T07:15:48.340Z,57.95
2023-02-08T07:18:16.676Z,49.30
2023-02-08T07:20:44.914Z,63.33
2023-02-08T07:23:13.180Z,67.50
2023-02-08T07:25:41.569Z,62.10
2023-02-08T07:28:10.060Z,52.80
2023-02-08T07:30:38.512Z,59.25
2023-02-08T07:33:08.198Z,55.90
2023-02-08T07:35:40.631Z,61.60
2023-02-08T07:38:09.215Z,57.00
2023-02-08T07:40:37.449Z,75.57
2023-02-08T07:43:05.846Z,74.00
2023-02-08T07:45:49.803Z,80.18
2023-02-08T07:48:18.020Z,68.90
2023-02-08T07:50:46.330Z,67.35
2023-02-08T07:53:14.797Z,55.35
2023-02-08T07:55:45.906Z,60.53
2023-02-08T07:58:15.365Z,65.78
2023-02-08T08:00:43.912Z,56.17
2023-02-08T08:03:12.104Z,38.75
2023-02-08T08:05:44.210Z,51.03
2023-02-08T08:08:13.707Z,48.95
2023-02-08T08:10:42.363Z,49.78
2023-02-08T08:13:10.975Z,45.72
2023-02-08T08:15:40.706Z,50.33
2023-02-08T08:18:09.813Z,49.83
2023-02-08T08:20:42.463Z,50.35
2023-02-08T08:23:11.678Z,46.38
2023-02-08T08:25:39.864Z,41.40
2023-02-08T08:28:10.891Z,50.17
2023-02-08T08:30:39.628Z,39.30
2023-02-08T08:33:08.154Z,44.85
2023-02-08T08:35:36.528Z,44.58
2023-02-08T08:38:04.874Z,46.30
2023-02-08T08:40:33.669Z,53.00
2023-02-08T08:43:02.033Z,66.03
2023-02-08T08:45:30.283Z,51.13
2023-02-08T08:47:58.576Z,79.45
2023-02-08T08:50:26.815Z,60.45
2023-02-08T08:52:55.026Z,71.85
2023-02-08T08:55:23.413Z,69.88
2023-02-08T08:57:53.732Z,60.17
2023-02-08T09:00:22.680Z,54.00
2023-02-08T09:02:50.807Z,67.75
2023-02-08T09:05:19.360Z,62.42
2023-02-08T09:07:47.464Z,64.93
2023-02-08T09:10:15.720Z,64.53
2023-02-08T09:12:44.010Z,52.85
2023-02-08T09:15:12.113Z,52.53
2023-02-08T09:17:41.412Z,44.42
2023-02-08T09:20:10.322Z,44.83
2023-02-08T09:22:39.103Z,41.88
2023-02-08T09:25:08.864Z,60.10
2023-02-08T09:27:37.193Z,46.58
2023-02-08T09:30:05.809Z,44.65
2023-02-08T09:32:37.222Z,54.78
2023-02-08T09:35:05.755Z,56.85
2023-02-08T09:37:34.327Z,56.70
2023-02-08T09:40:02.830Z,53.60
2023-02-08T09:42:38.726Z,60.58
2023-02-08T09:45:24.409Z,77.97
2023-02-08T09:48:27.339Z,59.40
2023-02-08T09:51:32.569Z,60.72
2023-02-08T09:54:23.329Z,67.70
2023-02-08T09:56:53.943Z,64.88
2023-02-08T09:59:27.582Z,61.60
2023-02-08T10:02:11.288Z,79.50
2023-02-08T10:05:01.312Z,61.28
2023-02-08T10:07:31.506Z,47.55
2023-02-08T10:10:06.126Z,42.28
2023-02-08T10:13:00.882Z,44.08
2023-02-08T10:15:33.432Z,39.88
2023-02-08T10:18:26.261Z,41.78
2023-02-08T10:21:13.116Z,27.65
2023-02-08T10:24:20.592Z,33.03
2023-02-08T10:26:56.206Z,27.33
2023-02-08T10:29:35.456Z,33.72
2023-02-08T10:32:03.854Z,27.70
2023-02-08T10:34:49.546Z,34.33
2023-02-08T10:37:39.889Z,30.65
2023-02-08T10:40:39.928Z,22.42
2023-02-08T10:43:25.352Z,29.65
2023-02-08T10:46:09.075Z,25.98
2023-02-08T10:48:58.682Z,21.40
2023-02-08T10:51:28.094Z,26.48
2023-02-08T10:53:56.337Z,20.05
2023-02-08T10:56:53.257Z,26.50
2023-02-08T10:59:30.686Z,31.50
2023-02-08T11:02:00.064Z,33.00
2023-02-08T11:04:28.960Z,22.00
2023-02-08T11:06:57.393Z,41.53
2023-02-08T11:09:29.243Z,60.90
2023-02-08T11:12:00.958Z,47.13
2023-02-08T11:14:48.248Z,35.35
2023-02-08T11:17:34.722Z,43.75
2023-02-08T11:20:03.087Z,54.05
2023-02-08T11:22:31.923Z,31.48
2023-02-08T11:25:08.124Z,40.60
2023-02-08T11:27:38.881Z,40.65
2023-02-08T11:30:16.273Z,26.77
2023-02-08T11:32:46.759Z,40.10
2023-02-08T11:35:23.858Z,40.53
2023-02-08T11:38:00.167Z,40.33
2023-02-08T11:40:37.133Z,26.02
2023-02-08T11:43:06.187Z,35.28
2023-02-08T11:45:37.501Z,37.97
2023-02-08T11:48:17.353Z,34.65
2023-02-08T11:50:45.765Z,46.33
2023-02-08T11:53:46.592Z,33.10
2023-02-08T11:56:24.846Z,30.48
2023-02-08T11:59:20.776Z,45.72
2023-02-08T12:01:49.114Z,50.83
2023-02-08T12:04:19.125Z,45.20
2023-02-08T12:07:31.942Z,46.85
2023-02-08T12:10:19.169Z,39.78
2023-02-08T12:13:10.800Z,35.38
2023-02-08T12:15:57.534Z,43.58
2023-02-08T12:18:35.655Z,33.08
2023-02-08T12:21:22.289Z,30.52
2023-02-08T12:24:03.586Z,49.70
2023-02-08T12:26:49.353Z,48.10
2023-02-08T12:29:47.817Z,47.90
2023-02-08T12:32:46.981Z,44.50
2023-02-08T12:36:02.748Z,45.78
2023-02-08T12:38:54.186Z,57.47
2023-02-08T12:41:28.345Z,42.15
2023-02-08T12:44:06.522Z,44.42
2023-02-08T12:46:49.841Z,57.45
2023-02-08T12:49:30.310Z,51.72
2023-02-08T12:52:38.408Z,50.40
2023-02-08T12:55:18.470Z,60.38
2023-02-08T12:57:51.436Z,46.15
2023-02-08T13:00:29.817Z,36.33
2023-02-08T13:03:25.134Z,54.92
2023-02-08T13:06:02.133Z,49.55
2023-02-08T13:09:14.309Z,54.30
2023-02-08T13:11:49.509Z,48.22
2023-02-08T13:14:20.818Z,65.97
2023-02-08T13:16:54.192Z,50.42
2023-02-08T13:19:58.992Z,74.22
2023-02-08T13:22:31.910Z,85.32
2023-02-08T13:25:08.022Z,47.47
2023-02-08T13:27:36.864Z,56.65
2023-02-08T13:30:07.285Z,53.35
2023-02-08T13:32:45.892Z,72.22
2023-02-08T13:35:17.265Z,62.25
2023-02-08T13:37:53.722Z,63.60
2023-02-08T13:40:30.717Z,54.03
2023-02-08T13:43:03.766Z,67.43
2023-02-08T13:45:42.614Z,65.60
2023-02-08T13:48:17.413Z,47.33
2023-02-08T13:50:47.880Z,52.92
2023-02-08T13:53:39.527Z,49.25
2023-02-08T13:56:12.595Z,56.83
2023-02-08T13:58:43.486Z,49.72
2023-02-08T14:01:31.957Z,68.70
2023-02-08T14:04:09.347Z,56.28
2023-02-08T14:07:00.763Z,70.63
2023-02-08T14:09:53.695Z,66.80
2023-02-08T14:12:40.552Z,64.60
2023-02-08T14:15:33.160Z,48.72
2023-02-08T14:18:02.293Z,58.78
2023-02-08T14:20:36.461Z,51.83
2023-02-08T14:23:08.663Z,56.97
2023-02-08T14:25:44.756Z,60.50
2023-02-08T14:28:36.489Z,50.70
2023-02-08T14:31:08.690Z,58.58
2023-02-08T14:33:43.275Z,47.42
2023-02-08T14:36:31.067Z,42.72
2023-02-08T14:39:26.183Z,57.83
2023-02-08T14:41:57.221Z,57.65
2023-02-08T14:44:40.927Z,62.87
2023-02-08T14:47:25.394Z,51.22
2023-02-08T14:50:18.067Z,53.22
2023-02-08T14:52:58.424Z,58.85
2023-02-08T14:55:34.374Z,57.83
2023-02-08T14:58:04.583Z,48.72
2023-02-08T15:00:38.473Z,72.63
2023-02-08T15:03:14.324Z,69.03
2023-02-08T15:05:58.095Z,54.25
2023-02-08T15:08:27.805Z,57.25
2023-02-08T15:10:56.811Z,62.50
2023-02-08T15:13:25.724Z,52.80
2023-02-08T15:15:58.272Z,69.40
2023-02-08T15:18:32.902Z,68.15
2023-02-08T15:21:05.452Z,46.38
2023-02-08T15:23:34.182Z,62.47
2023-02-08T15:26:03.886Z,53.30
2023-02-08T15:28:36.233Z,65.45
2023-02-08T15:31:15.051Z,49.25
2023-02-08T15:33:44.091Z,40.85
2023-02-08T15:36:22.299Z,45.95
2023-02-08T15:38:52.386Z,64.93
2023-02-08T15:41:29.468Z,38.40
2023-02-08T15:44:24.092Z,59.03
2023-02-08T15:46:56.405Z,41.97
2023-02-08T15:49:47.706Z,42.30
2023-02-08T15:52:21.907Z,49.87
2023-02-08T15:54:52.793Z,39.15
2023-02-08T15:57:31.849Z,36.78
2023-02-08T16:00:00.875Z,56.38
2023-02-08T16:02:30.633Z,59.70
2023-02-08T16:05:01.226Z,51.90
2023-02-08T16:07:35.504Z,68.57
2023-02-08T16:10:05.285Z,58.03
2023-02-08T16:12:34.548Z,63.15
2023-02-08T16:15:03.224Z,63.50
2023-02-08T16:17:39.080Z,61.05
2023-02-08T16:20:33.977Z,53.47
2023-02-08T16:23:24.136Z,50.45
2023-02-08T16:25:55.644Z,56.28
2023-02-08T16:28:31.489Z,46.38
2023-02-08T16:31:04.843Z,63.30
2023-02-08T16:33:34.229Z,69.13
2023-02-08T16:36:02.474Z,58.40
2023-02-08T16:38:33.417Z,62.45
2023-02-08T16:41:04.436Z,61.40
2023-02-08T16:43:33.571Z,45.20
2023-02-08T16:46:11.266Z,74.97
2023-02-08T16:48:44.900Z,56.47
2023-02-08T16:51:22.807Z,63.00
2023-02-08T16:53:54.582Z,68.60
2023-02-08T16:58:51.201Z,54.53
2023-02-08T17:01:21.370Z,65.20
2023-02-08T17:03:49.942Z,55.30
2023-02-08T17:06:39.381Z,71.20
2023-02-08T17:09:09.371Z,73.97
2023-02-08T17:11:37.965Z,66.70
2023-02-08T17:14:07.096Z,49.80
2023-02-08T17:16:37.011Z,55.35
2023-02-08T17:19:05.474Z,67.55
2023-02-08T17:21:33.810Z,53.55
2023-02-08T17:24:02.220Z,64.57
2023-02-08T17:26:45.261Z,78.88
2023-02-08T17:29:13.786Z,82.43
2023-02-08T17:31:42.137Z,117.28
2023-02-08T17:34:10.409Z,85.03
2023-02-08T17:36:39.733Z,98.13
2023-02-08T17:39:11.241Z,80.65
2023-02-08T17:41:40.950Z,78.60
2023-02-08T17:44:09.465Z,80.78
2023-02-08T17:46:37.665Z,62.13
2023-02-08T17:49:06.023Z,86.45
2023-02-08T17:51:34.280Z,76.72
2023-02-08T17:54:05.542Z,100.15
2023-02-08T17:56:33.999Z,75.30
2023-02-08T17:59:02.475Z,73.43
2023-02-08T18:01:31.365Z,66.15
2023-02-08T18:04:00.553Z,59.47
2023-02-08T18:06:29.162Z,67.70
2023-02-08T18:08:57.440Z,73.95
2023-02-08T18:11:25.733Z,63.88
2023-02-08T18:13:54.921Z,63.97
2023-02-08T18:16:26.062Z,69.65
2023-02-08T18:19:00.225Z,71.40
2023-02-08T18:21:28.930Z,66.45
2023-02-08T18:24:10.646Z,82.30
2023-02-08T18:26:46.662Z,65.70
2023-02-08T18:29:16.166Z,60.45
2023-02-08T18:31:45.346Z,86.88
2023-02-08T18:34:14.386Z,87.25
2023-02-08T18:36:42.897Z,75.43
2023-02-08T18:39:14.162Z,75.05
2023-02-08T18:41:43.315Z,79.05
2023-02-08T18:44:11.534Z,85.63
2023-02-08T18:46:40.040Z,85.32
2023-02-08T18:49:08.311Z,87.45
2023-02-08T18:51:36.556Z,115.07
2023-02-08T18:54:07.963Z,73.68
2023-02-08T18:56:37.719Z,101.22
2023-02-08T18:59:06.087Z,90.80
2023-02-08T19:01:34.482Z,83.38
2023-02-08T19:04:02.832Z,100.18
2023-02-08T19:06:32.956Z,113.88
2023-02-08T19:09:06.319Z,97.10
2023-02-08T19:11:40.464Z,80.07
2023-02-08T19:14:13.931Z,81.60
2023-02-08T19:16:45.803Z,82.22
2023-02-08T19:19:14.320Z,82.03
2023-02-08T19:21:42.489Z,73.32
2023-02-08T19:24:15.099Z,107.13
2023-02-08T19:26:43.707Z,105.28
2023-02-08T19:29:14.743Z,105.88
2023-02-08T19:31:44.312Z,90.25
2023-02-08T19:34:13.558Z,105.22
2023-02-08T19:36:44.574Z,101.80
2023-02-08T19:39:19.374Z,86.97
2023-02-08T19:41:48.573Z,98.07
2023-02-08T19:44:19.217Z,108.32
2023-02-08T19:47:13.663Z,71.45
2023-02-08T19:51:04.776Z,85.97
2023-02-08T19:53:33.476Z,102.63
2023-02-08T19:56:07.619Z,89.65
2023-02-08T19:58:37.781Z,85.32
2023-02-08T20:01:24.815Z,152.35
2023-02-08T20:03:54.755Z,135.25
2023-02-08T20:06:30.129Z,99.93
2023-02-08T20:08:58.416Z,72.78
2023-02-08T20:11:29.581Z,77.20
2023-02-08T20:14:01.248Z,96.32
2023-02-08T20:16:31.829Z,118.05
2023-02-08T20:19:01.782Z,167.40
2023-02-08T20:21:31.290Z,83.10
2023-02-08T20:24:01.596Z,73.63
2023-02-08T20:26:31.126Z,91.00
2023-02-08T20:29:00.418Z,67.68
2023-02-08T20:31:31.569Z,109.13
2023-02-08T20:34:04.046Z,128.33
2023-02-08T20:36:35.284Z,147.45
2023-02-08T20:39:03.779Z,221.20
2023-02-08T20:41:32.202Z,189.45
2023-02-08T20:44:00.895Z,173.13
2023-02-08T20:46:32.163Z,174.52
2023-02-08T20:49:02.191Z,175.57
2023-02-08T20:51:32.920Z,150.48
2023-02-08T20:54:02.538Z,125.55
2023-02-08T20:56:36.403Z,123.05
2023-02-08T20:59:10.848Z,130.38
2023-02-08T21:01:39.226Z,121.95
2023-02-08T21:04:07.394Z,121.90
2023-02-08T21:06:38.111Z,103.60
2023-02-08T21:09:09.423Z,88.20
2023-02-08T21:11:37.922Z,116.22
2023-02-08T21:14:07.207Z,99.70
2023-02-08T21:16:35.587Z,108.35
2023-02-08T21:19:03.794Z,103.40
2023-02-08T21:21:32.374Z,106.60
2023-02-08T21:24:00.518Z,109.03
2023-02-08T21:26:29.008Z,92.85
2023-02-08T21:28:57.970Z,87.78
2023-02-08T21:31:26.784Z,85.72
2023-02-08T21:33:55.025Z,83.43
2023-02-08T21:36:24.778Z,90.00
2023-02-08T21:38:53.230Z,114.65
2023-02-08T21:41:30.527Z,113.50
2023-02-08T21:44:01.259Z,85.07
2023-02-08T21:46:29.736Z,73.18
2023-02-08T21:48:59.312Z,182.80
2023-02-08T21:51:27.785Z,228.63
2023-02-08T21:53:56.048Z,107.18
2023-02-08T21:56:24.476Z,207.73
2023-02-08T21:58:52.683Z,162.57
2023-02-08T22:01:21.129Z,97.38
2023-02-08T22:03:49.692Z,65.53
2023-02-08T22:06:18.011Z,63.38
2023-02-08T22:08:46.373Z,70.10
2023-02-08T22:11:15.729Z,130.88
2023-02-08T22:13:44.368Z,152.27
2023-02-08T22:16:13.127Z,143.07
2023-02-08T22:18:41.797Z,99.03
2023-02-08T22:21:10.099Z,125.97
2023-02-08T22:23:38.567Z,96.70
2023-02-08T22:26:10.712Z,106.35
2023-02-08T22:31:06.898Z,99.40
2023-02-08T22:33:35.428Z,106.85
2023-02-08T22:36:08.533Z,126.13
2023-02-08T22:40:31.735Z,104.93
2023-02-08T22:42:59.999Z,118.10
2023-02-08T22:45:28.449Z,114.57
2023-02-08T22:47:56.862Z,119.50
2023-02-08T22:50:25.152Z,112.88
2023-02-08T22:52:53.387Z,115.15
2023-02-08T22:55:22.032Z,115.78
2023-02-08T22:57:50.244Z,152.13
2023-02-08T23:00:18.719Z,195.95
2023-02-08T23:02:47.219Z,216.13
2023-02-08T23:05:15.545Z,234.30
2023-02-08T23:07:46.609Z,199.75
2023-02-08T23:10:15.042Z,263.95
2023-02-08T23:13:08.828Z,275.48
2023-02-08T23:15:41.674Z,223.43
2023-02-08T23:18:10.728Z,129.93
2023-02-08T23:20:40.658Z,116.57
2023-02-08T23:23:09.514Z,151.18
2023-02-08T23:25:42.131Z,250.35
2023-02-08T23:28:12.403Z,244.93
2023-02-08T23:30:42.654Z,240.18
2023-02-08T23:33:11.433Z,160.88
2023-02-08T23:35:42.879Z,158.77
2023-02-08T23:38:11.316Z,145.73
2023-02-08T23:40:41.335Z,131.95
2023-02-08T23:43:09.752Z,136.20
2023-02-08T23:45:38.033Z,140.90
2023-02-08T23:48:06.483Z,127.82
2023-02-08T23:50:36.030Z,145.73
2023-02-08T23:53:04.318Z,163.90
2023-02-08T23:55:32.741Z,167.43
2023-02-08T23:58:01.132Z,167.98
